Terminal Aerodrome Forecast
Issued by NWS

Home | Current Version | Previous Version | Text Only | Print | Product List | Glossary On
Versions: 1 2 3 4 5 6 7 8 9 10 11 12 13 14 15 16 17 18 19 20 21 22 23 24 25 26 27 28 29 30
000
FTUS43 KDLH 052142 AAB
TAFHIB
TAF AMD
KHIB 052142Z 0522/0618 18010G16KT P6SM VCTS BKN050CB
      TEMPO 0600/0602 4SM -TSRA
     FM060200 22006KT 4SM -RA VCTS BKN030CB
     FM060300 35005KT 3SM BR VCSH SCT015 BKN025
     FM061300 34007KT P6SM SCT050 BKN070=

USA.gov is the U.S. government's official web portal to all federal, state and local government web resources and services.